Terminal Aerodrome Forecast
Issued by NWS

Current Version | Previous Version | Graphics & Text | Print | Product List | Glossary On
Versions: 1 2 3 4 5 6 7 8 9 10 11 12 13
057
FTUS41 KILN 161723
TAFLCK
TAF
KLCK 161723Z 1618/1718 34010KT P6SM BKN040
     FM170100 VRB03KT P6SM SKC
     FM171400 19005KT P6SM SKC=

USA.gov is the U.S. government's official web portal to all federal, state and local government web resources and services.